sensor_id;sensor_type;location;lat;lon;timestamp;temperature;humidity
19200;DHT22;9732;52.498;5.408;2022-07-03T00:02:00;19.90;99.90
19200;DHT22;9732;52.498;5.408;2022-07-03T00:04:27;19.90;99.90
19200;DHT22;9732;52.498;5.408;2022-07-03T00:06:54;19.80;99.90
19200;DHT22;9732;52.498;5.408;2022-07-03T00:09:21;19.80;99.90
19200;DHT22;9732;52.498;5.408;2022-07-03T00:11:48;19.80;99.90
19200;DHT22;9732;52.498;5.408;2022-07-03T00:14:17;19.90;99.90
19200;DHT22;9732;52.498;5.408;2022-07-03T00:16:44;20.00;99.90
19200;DHT22;9732;52.498;5.408;2022-07-03T00:19:11;19.90;99.90
19200;DHT22;9732;52.498;5.408;2022-07-03T00:21:43;19.80;99.90
19200;DHT22;9732;52.498;5.408;2022-07-03T00:24:18;19.90;99.90
19200;DHT22;9732;52.498;5.408;2022-07-03T00:26:50;19.90;99.90
19200;DHT22;9732;52.498;5.408;2022-07-03T00:29:20;19.90;99.90
19200;DHT22;9732;52.498;5.408;2022-07-03T00:31:48;19.90;99.90
19200;DHT22;9732;52.498;5.408;2022-07-03T00:34:16;19.80;99.90
19200;DHT22;9732;52.498;5.408;2022-07-03T00:36:45;19.80;99.90
19200;DHT22;9732;52.498;5.408;2022-07-03T00:39:12;19.80;99.90
19200;DHT22;9732;52.498;5.408;2022-07-03T00:41:40;19.80;99.90
19200;DHT22;9732;52.498;5.408;2022-07-03T00:44:09;19.80;99.90
19200;DHT22;9732;52.498;5.408;2022-07-03T00:46:38;19.80;99.90
19200;DHT22;9732;52.498;5.408;2022-07-03T00:49:09;19.90;99.90
19200;DHT22;9732;52.498;5.408;2022-07-03T00:51:39;19.70;99.90
19200;DHT22;9732;52.498;5.408;2022-07-03T00:54:08;19.60;99.90
19200;DHT22;9732;52.498;5.408;2022-07-03T00:56:38;19.50;99.90
19200;DHT22;9732;52.498;5.408;2022-07-03T00:59:05;19.30;99.90
19200;DHT22;9732;52.498;5.408;2022-07-03T01:01:35;19.30;99.90
19200;DHT22;9732;52.498;5.408;2022-07-03T01:04:10;19.20;99.90
19200;DHT22;9732;52.498;5.408;2022-07-03T01:06:48;19.20;99.90
19200;DHT22;9732;52.498;5.408;2022-07-03T01:09:23;19.10;99.90
19200;DHT22;9732;52.498;5.408;2022-07-03T01:11:57;18.90;99.90
19200;DHT22;9732;52.498;5.408;2022-07-03T01:14:28;18.80;99.90
19200;DHT22;9732;52.498;5.408;2022-07-03T01:16:58;18.80;99.90
19200;DHT22;9732;52.498;5.408;2022-07-03T01:19:36;18.60;99.90
19200;DHT22;9732;52.498;5.408;2022-07-03T01:22:28;18.60;99.90
19200;DHT22;9732;52.498;5.408;2022-07-03T01:25:14;18.50;99.90
19200;DHT22;9732;52.498;5.408;2022-07-03T01:27:56;18.50;99.90
19200;DHT22;9732;52.498;5.408;2022-07-03T01:30:24;18.60;99.90
19200;DHT22;9732;52.498;5.408;2022-07-03T01:32:58;18.50;99.90
19200;DHT22;9732;52.498;5.408;2022-07-03T01:35:28;18.50;99.90
19200;DHT22;9732;52.498;5.408;2022-07-03T01:38:02;18.40;99.90
19200;DHT22;9732;52.498;5.408;2022-07-03T01:40:32;18.40;99.90
19200;DHT22;9732;52.498;5.408;2022-07-03T01:43:02;18.40;99.90
19200;DHT22;9732;52.498;5.408;2022-07-03T01:45:31;18.40;99.90
19200;DHT22;9732;52.498;5.408;2022-07-03T01:47:59;18.40;99.90
19200;DHT22;9732;52.498;5.408;2022-07-03T01:50:28;18.30;99.90
19200;DHT22;9732;52.498;5.408;2022-07-03T01:52:56;18.30;99.90
19200;DHT22;9732;52.498;5.408;2022-07-03T01:55:30;18.30;99.90
19200;DHT22;9732;52.498;5.408;2022-07-03T01:57:57;18.30;99.90
19200;DHT22;9732;52.498;5.408;2022-07-03T02:00:26;18.30;99.90
19200;DHT22;9732;52.498;5.408;2022-07-03T02:02:57;18.30;99.90
19200;DHT22;9732;52.498;5.408;2022-07-03T02:05:30;18.20;99.90
19200;DHT22;9732;52.498;5.408;2022-07-03T02:08:04;18.20;99.90
19200;DHT22;9732;52.498;5.408;2022-07-03T02:10:37;18.20;99.90
19200;DHT22;9732;52.498;5.408;2022-07-03T02:13:07;18.20;99.90
19200;DHT22;9732;52.498;5.408;2022-07-03T02:15:36;18.10;99.90
19200;DHT22;9732;52.498;5.408;2022-07-03T02:18:11;18.10;99.90
19200;DHT22;9732;52.498;5.408;2022-07-03T02:20:39;18.10;99.90
19200;DHT22;9732;52.498;5.408;2022-07-03T02:23:11;18.00;99.90
19200;DHT22;9732;52.498;5.408;2022-07-03T02:25:41;18.10;99.90
19200;DHT22;9732;52.498;5.408;2022-07-03T02:28:17;18.00;99.90
19200;DHT22;9732;52.498;5.408;2022-07-03T02:30:54;18.00;99.90
19200;DHT22;9732;52.498;5.408;2022-07-03T02:33:25;18.00;99.90
19200;DHT22;9732;52.498;5.408;2022-07-03T02:35:55;18.10;99.90
19200;DHT22;9732;52.498;5.408;2022-07-03T02:38:24;18.10;99.90
19200;DHT22;9732;52.498;5.408;2022-07-03T02:40:57;18.10;99.90
19200;DHT22;9732;52.498;5.408;2022-07-03T02:43:34;18.00;99.90
19200;DHT22;9732;52.498;5.408;2022-07-03T02:46:07;18.00;99.90
19200;DHT22;9732;52.498;5.408;2022-07-03T02:48:51;18.00;99.90
19200;DHT22;9732;52.498;5.408;2022-07-03T02:51:22;18.00;99.90
19200;DHT22;9732;52.498;5.408;2022-07-03T02:53:57;18.00;99.90
19200;DHT22;9732;52.498;5.408;2022-07-03T02:56:32;17.90;99.90
19200;DHT22;9732;52.498;5.408;2022-07-03T02:59:07;17.90;99.90
19200;DHT22;9732;52.498;5.408;2022-07-03T03:01:47;18.00;99.90
19200;DHT22;9732;52.498;5.408;2022-07-03T03:04:21;18.00;99.90
19200;DHT22;9732;52.498;5.408;2022-07-03T03:06:53;17.90;99.90
19200;DHT22;9732;52.498;5.408;2022-07-03T03:09:26;17.90;99.90
19200;DHT22;9732;52.498;5.408;2022-07-03T03:11:56;18.00;99.90
19200;DHT22;9732;52.498;5.408;2022-07-03T03:14:34;18.10;99.90
19200;DHT22;9732;52.498;5.408;2022-07-03T03:17:06;18.10;99.90
19200;DHT22;9732;52.498;5.408;2022-07-03T03:19:37;18.00;99.90
19200;DHT22;9732;52.498;5.408;2022-07-03T03:22:14;18.00;99.90
19200;DHT22;9732;52.498;5.408;2022-07-03T03:24:42;18.10;99.90
19200;DHT22;9732;52.498;5.408;2022-07-03T03:27:10;18.20;99.90
19200;DHT22;9732;52.498;5.408;2022-07-03T03:29:37;18.20;99.90
19200;DHT22;9732;52.498;5.408;2022-07-03T03:32:07;18.10;99.90
19200;DHT22;9732;52.498;5.408;2022-07-03T03:34:34;18.10;99.90
19200;DHT22;9732;52.498;5.408;2022-07-03T03:37:01;18.10;99.90
19200;DHT22;9732;52.498;5.408;2022-07-03T03:39:28;18.10;99.90
19200;DHT22;9732;52.498;5.408;2022-07-03T03:41:55;18.10;99.90
19200;DHT22;9732;52.498;5.408;2022-07-03T03:44:22;18.20;99.90
19200;DHT22;9732;52.498;5.408;2022-07-03T03:46:50;18.10;99.90
19200;DHT22;9732;52.498;5.408;2022-07-03T03:49:18;18.10;99.90
19200;DHT22;9732;52.498;5.408;2022-07-03T03:51:45;18.10;99.90
19200;DHT22;9732;52.498;5.408;2022-07-03T03:54:12;18.10;99.90
19200;DHT22;9732;52.498;5.408;2022-07-03T03:56:39;18.10;99.90
19200;DHT22;9732;52.498;5.408;2022-07-03T03:59:05;18.10;99.90
19200;DHT22;9732;52.498;5.408;2022-07-03T04:01:32;18.10;99.90
19200;DHT22;9732;52.498;5.408;2022-07-03T04:03:59;18.20;99.90
19200;DHT22;9732;52.498;5.408;2022-07-03T04:06:27;18.30;99.90
19200;DHT22;9732;52.498;5.408;2022-07-03T04:08:54;18.30;99.90
19200;DHT22;9732;52.498;5.408;2022-07-03T04:11:21;18.30;99.90
19200;DHT22;9732;52.498;5.408;2022-07-03T04:13:47;18.30;99.90
19200;DHT22;9732;52.498;5.408;2022-07-03T04:16:14;18.20;99.90
19200;DHT22;9732;52.498;5.408;2022-07-03T04:18:41;18.20;99.90
19200;DHT22;9732;52.498;5.408;2022-07-03T04:21:08;18.30;99.90
19200;DHT22;9732;52.498;5.408;2022-07-03T04:23:36;18.40;99.90
19200;DHT22;9732;52.498;5.408;2022-07-03T04:26:04;18.50;99.90
19200;DHT22;9732;52.498;5.408;2022-07-03T04:28:31;18.50;99.90
19200;DHT22;9732;52.498;5.408;2022-07-03T04:30:58;18.40;99.90
19200;DHT22;9732;52.498;5.408;2022-07-03T04:33:24;18.50;99.90
19200;DHT22;9732;52.498;5.408;2022-07-03T04:35:51;18.50;99.90
19200;DHT22;9732;52.498;5.408;2022-07-03T04:38:18;18.40;99.90
19200;DHT22;9732;52.498;5.408;2022-07-03T04:40:46;18.40;99.90
19200;DHT22;9732;52.498;5.408;2022-07-03T04:43:13;18.40;99.90
19200;DHT22;9732;52.498;5.408;2022-07-03T04:45:42;18.40;99.90
19200;DHT22;9732;52.498;5.408;2022-07-03T04:48:08;18.40;99.90
19200;DHT22;9732;52.498;5.408;2022-07-03T04:50:35;18.40;99.90
19200;DHT22;9732;52.498;5.408;2022-07-03T04:53:02;18.40;99.90
19200;DHT22;9732;52.498;5.408;2022-07-03T04:55:29;18.40;99.90
19200;DHT22;9732;52.498;5.408;2022-07-03T04:57:57;18.40;99.90
19200;DHT22;9732;52.498;5.408;2022-07-03T05:00:23;18.40;99.90
19200;DHT22;9732;52.498;5.408;2022-07-03T05:02:50;18.40;99.90
19200;DHT22;9732;52.498;5.408;2022-07-03T05:05:17;18.40;99.90
19200;DHT22;9732;52.498;5.408;2022-07-03T05:07:44;18.40;99.90
19200;DHT22;9732;52.498;5.408;2022-07-03T05:10:11;18.40;99.90
19200;DHT22;9732;52.498;5.408;2022-07-03T05:12:37;18.30;99.90
19200;DHT22;9732;52.498;5.408;2022-07-03T05:15:06;18.30;99.90
19200;DHT22;9732;52.498;5.408;2022-07-03T05:17:33;18.30;99.90
19200;DHT22;9732;52.498;5.408;2022-07-03T05:20:00;18.30;99.90
19200;DHT22;9732;52.498;5.408;2022-07-03T05:22:41;18.40;99.90
19200;DHT22;9732;52.498;5.408;2022-07-03T05:25:08;18.50;99.90
19200;DHT22;9732;52.498;5.408;2022-07-03T05:27:36;18.60;99.90
19200;DHT22;9732;52.498;5.408;2022-07-03T05:30:03;18.60;99.90
19200;DHT22;9732;52.498;5.408;2022-07-03T05:32:32;18.60;99.90
19200;DHT22;9732;52.498;5.408;2022-07-03T05:34:59;18.60;99.90
19200;DHT22;9732;52.498;5.408;2022-07-03T05:37:26;18.60;99.90
19200;DHT22;9732;52.498;5.408;2022-07-03T05:39:53;18.70;99.90
19200;DHT22;9732;52.498;5.408;2022-07-03T05:42:19;18.70;99.90
19200;DHT22;9732;52.498;5.408;2022-07-03T05:44:45;18.70;99.90
19200;DHT22;9732;52.498;5.408;2022-07-03T05:47:12;18.70;99.90
19200;DHT22;9732;52.498;5.408;2022-07-03T05:49:40;18.80;99.90
19200;DHT22;9732;52.498;5.408;2022-07-03T05:52:07;18.70;99.90
19200;DHT22;9732;52.498;5.408;2022-07-03T05:54:34;18.70;99.90
19200;DHT22;9732;52.498;5.408;2022-07-03T05:57:01;18.70;99.90
19200;DHT22;9732;52.498;5.408;2022-07-03T05:59:27;18.80;99.90
19200;DHT22;9732;52.498;5.408;2022-07-03T06:01:54;18.80;99.90
19200;DHT22;9732;52.498;5.408;2022-07-03T06:04:21;18.70;99.90
19200;DHT22;9732;52.498;5.408;2022-07-03T06:06:49;18.80;99.90
19200;DHT22;9732;52.498;5.408;2022-07-03T06:09:16;18.80;99.90
19200;DHT22;9732;52.498;5.408;2022-07-03T06:11:42;18.90;99.90
19200;DHT22;9732;52.498;5.408;2022-07-03T06:14:09;19.00;99.90
19200;DHT22;9732;52.498;5.408;2022-07-03T06:16:36;19.00;99.90
19200;DHT22;9732;52.498;5.408;2022-07-03T06:19:02;19.00;99.90
19200;DHT22;9732;52.498;5.408;2022-07-03T06:21:29;18.90;99.90
19200;DHT22;9732;52.498;5.408;2022-07-03T06:23:57;18.90;99.90
19200;DHT22;9732;52.498;5.408;2022-07-03T06:26:25;19.00;99.90
19200;DHT22;9732;52.498;5.408;2022-07-03T06:28:52;19.10;99.90
19200;DHT22;9732;52.498;5.408;2022-07-03T06:31:18;19.10;99.90
19200;DHT22;9732;52.498;5.408;2022-07-03T06:33:45;19.10;99.90
19200;DHT22;9732;52.498;5.408;2022-07-03T06:36:12;19.20;99.90
19200;DHT22;9732;52.498;5.408;2022-07-03T06:38:39;19.20;99.90
19200;DHT22;9732;52.498;5.408;2022-07-03T06:41:07;19.30;99.90
19200;DHT22;9732;52.498;5.408;2022-07-03T06:43:34;19.50;99.90
19200;DHT22;9732;52.498;5.408;2022-07-03T06:46:00;19.70;99.90
19200;DHT22;9732;52.498;5.408;2022-07-03T06:48:27;19.80;99.90
19200;DHT22;9732;52.498;5.408;2022-07-03T06:50:54;19.80;99.90
19200;DHT22;9732;52.498;5.408;2022-07-03T06:53:20;19.90;99.90
19200;DHT22;9732;52.498;5.408;2022-07-03T06:55:47;19.90;99.90
19200;DHT22;9732;52.498;5.408;2022-07-03T06:58:15;19.90;99.90
19200;DHT22;9732;52.498;5.408;2022-07-03T07:00:42;20.10;99.90
19200;DHT22;9732;52.498;5.408;2022-07-03T07:03:09;20.10;99.90
19200;DHT22;9732;52.498;5.408;2022-07-03T07:05:35;20.20;99.90
19200;DHT22;9732;52.498;5.408;2022-07-03T07:08:02;20.20;99.90
19200;DHT22;9732;52.498;5.408;2022-07-03T07:10:29;20.30;99.90
19200;DHT22;9732;52.498;5.408;2022-07-03T07:12:56;20.40;99.90
19200;DHT22;9732;52.498;5.408;2022-07-03T07:15:24;20.50;99.90
19200;DHT22;9732;52.498;5.408;2022-07-03T07:17:51;20.40;99.90
19200;DHT22;9732;52.498;5.408;2022-07-03T07:20:17;20.50;99.90
19200;DHT22;9732;52.498;5.408;2022-07-03T07:22:44;20.50;99.90
19200;DHT22;9732;52.498;5.408;2022-07-03T07:25:11;20.50;99.90
19200;DHT22;9732;52.498;5.408;2022-07-03T07:27:37;20.50;99.90
19200;DHT22;9732;52.498;5.408;2022-07-03T07:30:05;20.50;99.90
19200;DHT22;9732;52.498;5.408;2022-07-03T07:32:34;20.40;99.90
19200;DHT22;9732;52.498;5.408;2022-07-03T07:35:00;20.50;99.90
19200;DHT22;9732;52.498;5.408;2022-07-03T07:37:27;20.40;99.90
19200;DHT22;9732;52.498;5.408;2022-07-03T07:39:54;20.40;99.90
19200;DHT22;9732;52.498;5.408;2022-07-03T07:42:20;20.40;99.90
19200;DHT22;9732;52.498;5.408;2022-07-03T07:44:48;20.40;99.90
19200;DHT22;9732;52.498;5.408;2022-07-03T07:47:15;20.40;99.90
19200;DHT22;9732;52.498;5.408;2022-07-03T07:49:43;20.40;99.90
19200;DHT22;9732;52.498;5.408;2022-07-03T07:52:09;20.40;99.90
19200;DHT22;9732;52.498;5.408;2022-07-03T07:54:36;20.40;99.90
19200;DHT22;9732;52.498;5.408;2022-07-03T07:57:03;20.40;99.90
19200;DHT22;9732;52.498;5.408;2022-07-03T07:59:31;20.50;99.90
19200;DHT22;9732;52.498;5.408;2022-07-03T08:01:57;20.70;99.90
19200;DHT22;9732;52.498;5.408;2022-07-03T08:04:43;20.80;99.90
19200;DHT22;9732;52.498;5.408;2022-07-03T08:07:27;20.90;99.90
19200;DHT22;9732;52.498;5.408;2022-07-03T08:09:54;20.90;99.90
19200;DHT22;9732;52.498;5.408;2022-07-03T08:12:21;20.90;99.90
19200;DHT22;9732;52.498;5.408;2022-07-03T08:14:48;21.00;99.90
19200;DHT22;9732;52.498;5.408;2022-07-03T08:17:14;21.10;99.90
19200;DHT22;9732;52.498;5.408;2022-07-03T08:19:42;21.20;99.90
19200;DHT22;9732;52.498;5.408;2022-07-03T08:22:09;21.20;99.90
19200;DHT22;9732;52.498;5.408;2022-07-03T08:24:36;21.20;99.90
19200;DHT22;9732;52.498;5.408;2022-07-03T08:27:04;21.40;99.90
19200;DHT22;9732;52.498;5.408;2022-07-03T08:29:31;21.50;99.90
19200;DHT22;9732;52.498;5.408;2022-07-03T08:31:58;21.50;99.90
19200;DHT22;9732;52.498;5.408;2022-07-03T08:34:24;21.50;99.90
19200;DHT22;9732;52.498;5.408;2022-07-03T08:36:53;21.50;99.90
19200;DHT22;9732;52.498;5.408;2022-07-03T08:39:19;21.60;99.90
19200;DHT22;9732;52.498;5.408;2022-07-03T08:41:48;21.60;99.90
19200;DHT22;9732;52.498;5.408;2022-07-03T08:44:17;21.70;99.90
19200;DHT22;9732;52.498;5.408;2022-07-03T08:46:45;21.80;99.90
19200;DHT22;9732;52.498;5.408;2022-07-03T08:49:14;21.90;99.90
19200;DHT22;9732;52.498;5.408;2022-07-03T08:51:41;22.00;99.90
19200;DHT22;9732;52.498;5.408;2022-07-03T08:54:09;22.40;99.90
19200;DHT22;9732;52.498;5.408;2022-07-03T08:56:36;22.50;99.90
19200;DHT22;9732;52.498;5.408;2022-07-03T08:59:05;22.40;99.90
19200;DHT22;9732;52.498;5.408;2022-07-03T09:01:33;22.40;99.90
19200;DHT22;9732;52.498;5.408;2022-07-03T09:04:08;22.20;99.90
19200;DHT22;9732;52.498;5.408;2022-07-03T09:06:35;22.00;99.90
19200;DHT22;9732;52.498;5.408;2022-07-03T09:09:02;21.90;99.90
19200;DHT22;9732;52.498;5.408;2022-07-03T09:11:31;21.70;99.90
19200;DHT22;9732;52.498;5.408;2022-07-03T09:13:58;21.60;99.90
19200;DHT22;9732;52.498;5.408;2022-07-03T09:16:24;21.40;99.90
19200;DHT22;9732;52.498;5.408;2022-07-03T09:18:51;21.20;99.90
19200;DHT22;9732;52.498;5.408;2022-07-03T09:21:18;21.00;99.90
19200;DHT22;9732;52.498;5.408;2022-07-03T09:23:46;20.90;99.90
19200;DHT22;9732;52.498;5.408;2022-07-03T09:26:14;20.80;99.90
19200;DHT22;9732;52.498;5.408;2022-07-03T09:28:44;20.90;99.90
19200;DHT22;9732;52.498;5.408;2022-07-03T09:31:13;21.20;99.90
19200;DHT22;9732;52.498;5.408;2022-07-03T09:33:57;21.60;99.90
19200;DHT22;9732;52.498;5.408;2022-07-03T09:36:38;21.80;99.90
19200;DHT22;9732;52.498;5.408;2022-07-03T09:39:20;22.00;99.90
19200;DHT22;9732;52.498;5.408;2022-07-03T09:41:58;21.90;99.90
19200;DHT22;9732;52.498;5.408;2022-07-03T09:44:34;22.00;99.90
19200;DHT22;9732;52.498;5.408;2022-07-03T09:47:13;22.30;99.90
19200;DHT22;9732;52.498;5.408;2022-07-03T09:49:51;22.40;99.90
19200;DHT22;9732;52.498;5.408;2022-07-03T09:52:35;22.70;99.90
19200;DHT22;9732;52.498;5.408;2022-07-03T09:55:13;23.00;99.90
19200;DHT22;9732;52.498;5.408;2022-07-03T09:57:42;23.30;99.90
19200;DHT22;9732;52.498;5.408;2022-07-03T10:00:15;23.50;99.90
19200;DHT22;9732;52.498;5.408;2022-07-03T10:02:57;23.90;99.90
19200;DHT22;9732;52.498;5.408;2022-07-03T10:05:26;24.00;99.90
19200;DHT22;9732;52.498;5.408;2022-07-03T10:07:54;23.90;99.90
19200;DHT22;9732;52.498;5.408;2022-07-03T10:10:22;23.80;99.90
19200;DHT22;9732;52.498;5.408;2022-07-03T10:12:50;23.90;99.90
19200;DHT22;9732;52.498;5.408;2022-07-03T10:15:19;24.20;99.90
19200;DHT22;9732;52.498;5.408;2022-07-03T10:17:48;24.50;99.90
19200;DHT22;9732;52.498;5.408;2022-07-03T10:20:23;24.80;99.90
19200;DHT22;9732;52.498;5.408;2022-07-03T10:22:51;25.20;99.90
19200;DHT22;9732;52.498;5.408;2022-07-03T10:25:18;25.60;99.90
19200;DHT22;9732;52.498;5.408;2022-07-03T10:27:46;26.00;99.90
19200;DHT22;9732;52.498;5.408;2022-07-03T10:30:14;26.30;99.90
19200;DHT22;9732;52.498;5.408;2022-07-03T10:32:44;26.30;99.90
19200;DHT22;9732;52.498;5.408;2022-07-03T10:35:12;26.10;99.90
19200;DHT22;9732;52.498;5.408;2022-07-03T10:40:37;26.10;99.90
19200;DHT22;9732;52.498;5.408;2022-07-03T10:43:27;26.50;99.90
19200;DHT22;9732;52.498;5.408;2022-07-03T10:46:13;27.00;99.90
19200;DHT22;9732;52.498;5.408;2022-07-03T10:48:59;27.40;99.90
19200;DHT22;9732;52.498;5.408;2022-07-03T10:51:28;27.70;99.90
19200;DHT22;9732;52.498;5.408;2022-07-03T10:54:15;28.10;99.90
19200;DHT22;9732;52.498;5.408;2022-07-03T10:57:05;28.50;99.90
19200;DHT22;9732;52.498;5.408;2022-07-03T11:02:39;27.50;99.90
19200;DHT22;9732;52.498;5.408;2022-07-03T11:05:25;26.50;99.90
19200;DHT22;9732;52.498;5.408;2022-07-03T11:08:11;26.10;99.90
19200;DHT22;9732;52.498;5.408;2022-07-03T11:10:40;25.50;99.90
19200;DHT22;9732;52.498;5.408;2022-07-03T11:13:12;24.70;99.90
19200;DHT22;9732;52.498;5.408;2022-07-03T11:15:43;23.90;99.90
19200;DHT22;9732;52.498;5.408;2022-07-03T11:18:18;23.40;99.90
19200;DHT22;9732;52.498;5.408;2022-07-03T11:24:17;22.40;99.90
19200;DHT22;9732;52.498;5.408;2022-07-03T11:26:46;21.90;99.90
19200;DHT22;9732;52.498;5.408;2022-07-03T11:29:26;21.60;99.90
19200;DHT22;9732;52.498;5.408;2022-07-03T11:31:54;21.40;99.90
19200;DHT22;9732;52.498;5.408;2022-07-03T11:34:20;21.20;99.90
19200;DHT22;9732;52.498;5.408;2022-07-03T11:36:49;21.10;99.90
19200;DHT22;9732;52.498;5.408;2022-07-03T11:39:18;21.00;99.90
19200;DHT22;9732;52.498;5.408;2022-07-03T11:41:47;20.80;99.90
19200;DHT22;9732;52.498;5.408;2022-07-03T11:44:19;20.70;99.90
19200;DHT22;9732;52.498;5.408;2022-07-03T11:46:51;20.70;99.90
19200;DHT22;9732;52.498;5.408;2022-07-03T11:49:20;20.70;99.90
19200;DHT22;9732;52.498;5.408;2022-07-03T11:51:57;20.70;99.90
19200;DHT22;9732;52.498;5.408;2022-07-03T11:54:24;20.80;99.90
19200;DHT22;9732;52.498;5.408;2022-07-03T11:56:51;20.90;99.90
19200;DHT22;9732;52.498;5.408;2022-07-03T11:59:18;21.10;99.90
19200;DHT22;9732;52.498;5.408;2022-07-03T12:01:45;21.30;99.90
19200;DHT22;9732;52.498;5.408;2022-07-03T12:04:14;21.40;99.90
19200;DHT22;9732;52.498;5.408;2022-07-03T12:06:43;21.50;99.90
19200;DHT22;9732;52.498;5.408;2022-07-03T12:09:18;21.50;99.90
19200;DHT22;9732;52.498;5.408;2022-07-03T12:11:56;21.60;99.90
19200;DHT22;9732;52.498;5.408;2022-07-03T12:14:37;21.60;99.90
19200;DHT22;9732;52.498;5.408;2022-07-03T12:17:05;21.60;99.90
19200;DHT22;9732;52.498;5.408;2022-07-03T12:19:32;21.80;99.90
19200;DHT22;9732;52.498;5.408;2022-07-03T12:22:00;21.90;99.90
19200;DHT22;9732;52.498;5.408;2022-07-03T12:24:28;22.00;99.90
19200;DHT22;9732;52.498;5.408;2022-07-03T12:26:55;22.00;99.90
19200;DHT22;9732;52.498;5.408;2022-07-03T12:29:22;22.00;99.90
19200;DHT22;9732;52.498;5.408;2022-07-03T12:31:49;22.30;99.90
19200;DHT22;9732;52.498;5.408;2022-07-03T12:34:18;22.80;99.90
19200;DHT22;9732;52.498;5.408;2022-07-03T12:36:55;23.80;99.90
19200;DHT22;9732;52.498;5.408;2022-07-03T12:39:22;24.40;99.90
19200;DHT22;9732;52.498;5.408;2022-07-03T12:41:50;24.30;99.90
19200;DHT22;9732;52.498;5.408;2022-07-03T12:44:17;23.90;99.90
19200;DHT22;9732;52.498;5.408;2022-07-03T12:46:46;23.50;99.90
19200;DHT22;9732;52.498;5.408;2022-07-03T12:49:15;23.10;99.90
19200;DHT22;9732;52.498;5.408;2022-07-03T12:51:43;22.80;99.90
19200;DHT22;9732;52.498;5.408;2022-07-03T12:54:12;22.60;99.90
19200;DHT22;9732;52.498;5.408;2022-07-03T12:56:40;22.60;99.90
19200;DHT22;9732;52.498;5.408;2022-07-03T12:59:23;22.50;99.90
19200;DHT22;9732;52.498;5.408;2022-07-03T13:02:00;22.20;99.90
19200;DHT22;9732;52.498;5.408;2022-07-03T13:04:32;22.10;99.90
19200;DHT22;9732;52.498;5.408;2022-07-03T13:07:00;22.00;99.90
19200;DHT22;9732;52.498;5.408;2022-07-03T13:09:27;21.90;99.90
19200;DHT22;9732;52.498;5.408;2022-07-03T13:11:54;21.80;99.90
19200;DHT22;9732;52.498;5.408;2022-07-03T13:14:22;21.70;99.90
19200;DHT22;9732;52.498;5.408;2022-07-03T13:16:51;21.50;99.90
19200;DHT22;9732;52.498;5.408;2022-07-03T13:19:19;21.40;99.90
19200;DHT22;9732;52.498;5.408;2022-07-03T13:21:47;21.30;99.90
19200;DHT22;9732;52.498;5.408;2022-07-03T13:24:15;21.30;99.90
19200;DHT22;9732;52.498;5.408;2022-07-03T13:26:42;21.10;99.90
19200;DHT22;9732;52.498;5.408;2022-07-03T13:29:09;21.00;99.90
19200;DHT22;9732;52.498;5.408;2022-07-03T13:31:37;20.80;99.90
19200;DHT22;9732;52.498;5.408;2022-07-03T13:34:04;20.60;99.90
19200;DHT22;9732;52.498;5.408;2022-07-03T13:36:31;20.20;99.90
19200;DHT22;9732;52.498;5.408;2022-07-03T13:38:58;20.10;99.90
19200;DHT22;9732;52.498;5.408;2022-07-03T13:41:25;20.10;99.90
19200;DHT22;9732;52.498;5.408;2022-07-03T13:43:53;20.20;99.90
19200;DHT22;9732;52.498;5.408;2022-07-03T13:46:21;20.30;99.90
19200;DHT22;9732;52.498;5.408;2022-07-03T13:48:51;20.40;99.90
19200;DHT22;9732;52.498;5.408;2022-07-03T13:51:18;20.70;99.90
19200;DHT22;9732;52.498;5.408;2022-07-03T13:53:44;21.20;99.90
19200;DHT22;9732;52.498;5.408;2022-07-03T13:56:13;21.60;99.90
19200;DHT22;9732;52.498;5.408;2022-07-03T13:58:39;22.10;99.90
19200;DHT22;9732;52.498;5.408;2022-07-03T14:01:06;22.40;99.90
19200;DHT22;9732;52.498;5.408;2022-07-03T14:03:33;22.60;99.90
19200;DHT22;9732;52.498;5.408;2022-07-03T14:06:01;22.30;99.90
19200;DHT22;9732;52.498;5.408;2022-07-03T14:08:28;21.90;99.90
19200;DHT22;9732;52.498;5.408;2022-07-03T14:10:57;21.80;99.90
19200;DHT22;9732;52.498;5.408;2022-07-03T14:13:24;22.00;99.90
19200;DHT22;9732;52.498;5.408;2022-07-03T14:15:51;22.20;99.90
19200;DHT22;9732;52.498;5.408;2022-07-03T14:18:18;22.30;99.90
19200;DHT22;9732;52.498;5.408;2022-07-03T14:20:44;22.40;99.90
19200;DHT22;9732;52.498;5.408;2022-07-03T14:23:12;22.20;99.90
19200;DHT22;9732;52.498;5.408;2022-07-03T14:25:39;22.00;99.90
19200;DHT22;9732;52.498;5.408;2022-07-03T14:28:06;21.60;99.90
19200;DHT22;9732;52.498;5.408;2022-07-03T14:30:50;21.30;99.90
19200;DHT22;9732;52.498;5.408;2022-07-03T14:33:34;21.20;99.90
19200;DHT22;9732;52.498;5.408;2022-07-03T14:36:01;21.10;99.90
19200;DHT22;9732;52.498;5.408;2022-07-03T14:38:29;20.90;99.90
19200;DHT22;9732;52.498;5.408;2022-07-03T14:40:56;20.80;99.90
19200;DHT22;9732;52.498;5.408;2022-07-03T14:43:23;20.70;99.90
19200;DHT22;9732;52.498;5.408;2022-07-03T14:45:50;20.80;99.90
19200;DHT22;9732;52.498;5.408;2022-07-03T14:48:16;20.70;99.90
19200;DHT22;9732;52.498;5.408;2022-07-03T14:50:43;20.60;99.90
19200;DHT22;9732;52.498;5.408;2022-07-03T14:53:10;20.50;99.90
19200;DHT22;9732;52.498;5.408;2022-07-03T14:55:39;20.50;99.90
19200;DHT22;9732;52.498;5.408;2022-07-03T14:58:14;20.40;99.90
19200;DHT22;9732;52.498;5.408;2022-07-03T15:00:46;20.40;99.90
19200;DHT22;9732;52.498;5.408;2022-07-03T15:03:17;20.30;99.90
19200;DHT22;9732;52.498;5.408;2022-07-03T15:05:46;20.30;99.90
19200;DHT22;9732;52.498;5.408;2022-07-03T15:08:34;20.30;99.90
19200;DHT22;9732;52.498;5.408;2022-07-03T15:11:08;20.40;99.90
19200;DHT22;9732;52.498;5.408;2022-07-03T15:14:01;20.50;99.90
19200;DHT22;9732;52.498;5.408;2022-07-03T15:16:29;20.70;99.90
19200;DHT22;9732;52.498;5.408;2022-07-03T15:18:58;20.70;99.90
19200;DHT22;9732;52.498;5.408;2022-07-03T15:21:29;20.60;99.90
19200;DHT22;9732;52.498;5.408;2022-07-03T15:23:59;20.60;99.90
19200;DHT22;9732;52.498;5.408;2022-07-03T15:26:28;20.80;99.90
19200;DHT22;9732;52.498;5.408;2022-07-03T15:28:57;21.20;99.90
19200;DHT22;9732;52.498;5.408;2022-07-03T15:31:26;21.40;99.90
19200;DHT22;9732;52.498;5.408;2022-07-03T15:33:53;21.50;99.90
19200;DHT22;9732;52.498;5.408;2022-07-03T15:36:22;21.60;99.90
19200;DHT22;9732;52.498;5.408;2022-07-03T15:38:57;21.70;99.90
19200;DHT22;9732;52.498;5.408;2022-07-03T15:41:31;21.70;99.90
19200;DHT22;9732;52.498;5.408;2022-07-03T15:44:11;21.80;99.90
19200;DHT22;9732;52.498;5.408;2022-07-03T15:46:48;21.90;99.90
19200;DHT22;9732;52.498;5.408;2022-07-03T15:49:26;22.00;99.90
19200;DHT22;9732;52.498;5.408;2022-07-03T15:52:15;22.10;99.90
19200;DHT22;9732;52.498;5.408;2022-07-03T15:54:52;22.00;99.90
19200;DHT22;9732;52.498;5.408;2022-07-03T15:57:28;21.90;99.90
19200;DHT22;9732;52.498;5.408;2022-07-03T16:00:00;21.90;99.90
19200;DHT22;9732;52.498;5.408;2022-07-03T16:05:25;22.00;99.90
19200;DHT22;9732;52.498;5.408;2022-07-03T16:07:52;22.10;99.90
19200;DHT22;9732;52.498;5.408;2022-07-03T16:10:19;22.00;99.90
19200;DHT22;9732;52.498;5.408;2022-07-03T16:12:48;22.00;99.90
19200;DHT22;9732;52.498;5.408;2022-07-03T16:15:16;21.90;99.90